createdAt,value
2018-04-24T00:01:37.872Z,17.70
2018-04-24T00:04:05.329Z,20.03
2018-04-24T00:06:32.784Z,19.40
2018-04-24T00:09:00.237Z,20.40
2018-04-24T00:11:27.697Z,22.90
2018-04-24T00:13:55.157Z,21.33
2018-04-24T00:16:24.322Z,22.83
2018-04-24T00:18:53.705Z,22.73
2018-04-24T00:21:21.931Z,20.70
2018-04-24T00:23:49.408Z,22.80
2018-04-24T00:26:17.628Z,20.93
2018-04-24T00:28:45.121Z,21.80
2018-04-24T00:31:12.576Z,22.60
2018-04-24T00:33:40.040Z,20.00
2018-04-24T00:36:08.268Z,20.20
2018-04-24T00:38:35.719Z,19.70
2018-04-24T00:41:03.945Z,20.40
2018-04-24T00:43:31.404Z,18.17
2018-04-24T00:45:59.638Z,21.30
2018-04-24T00:48:27.080Z,15.27
2018-04-24T00:50:55.317Z,21.80
2018-04-24T00:53:34.630Z,17.33
2018-04-24T00:56:27.686Z,19.43
2018-04-24T00:58:55.142Z,17.70
2018-04-24T01:01:24.536Z,17.90
2018-04-24T01:03:52.765Z,16.60
2018-04-24T01:06:20.219Z,16.23
2018-04-24T01:08:48.432Z,14.40
2018-04-24T01:11:15.902Z,13.90
2018-04-24T01:13:44.122Z,15.47
2018-04-24T01:16:30.374Z,13.60
2018-04-24T01:18:57.823Z,12.23
2018-04-24T01:21:26.057Z,11.83
2018-04-24T01:23:53.511Z,12.40
2018-04-24T01:26:20.981Z,11.43
2018-04-24T01:28:49.183Z,9.27
2018-04-24T01:31:16.647Z,12.80
2018-04-24T01:33:44.861Z,13.27
2018-04-24T01:36:12.322Z,15.53
2018-04-24T01:38:39.788Z,13.03
2018-04-24T01:41:07.249Z,13.67
2018-04-24T01:43:34.702Z,12.60
2018-04-24T01:46:02.152Z,12.77
2018-04-24T01:48:30.383Z,14.17
2018-04-24T01:50:57.858Z,14.53
2018-04-24T01:53:26.069Z,13.97
2018-04-24T01:55:53.536Z,13.10
2018-04-24T01:58:20.988Z,13.37
2018-04-24T02:00:48.464Z,13.17
2018-04-24T02:03:23.933Z,12.70
2018-04-24T02:05:51.400Z,12.93
2018-04-24T02:08:18.861Z,13.53
2018-04-24T02:10:46.321Z,13.80
2018-04-24T02:13:13.790Z,12.57
2018-04-24T02:15:42.010Z,13.90
2018-04-24T02:18:09.482Z,15.63
2018-04-24T02:20:36.937Z,15.27
2018-04-24T02:23:04.393Z,15.33
2018-04-24T02:25:31.860Z,16.37
2018-04-24T02:27:59.303Z,16.30
2018-04-24T02:33:24.459Z,18.03
2018-04-24T02:35:52.720Z,17.73
2018-04-24T02:38:20.172Z,20.60
2018-04-24T02:40:47.636Z,21.83
2018-04-24T02:43:15.849Z,24.53
2018-04-24T02:45:50.952Z,23.67
2018-04-24T02:48:18.404Z,24.47
2018-04-24T02:50:45.864Z,26.70
2018-04-24T02:53:14.121Z,25.93
2018-04-24T02:55:41.584Z,30.07
2018-04-24T02:58:09.043Z,28.80
2018-04-24T03:00:36.501Z,29.37
2018-04-24T03:03:17.058Z,30.03
2018-04-24T03:05:44.512Z,31.13
2018-04-24T03:08:11.973Z,29.47
2018-04-24T03:10:39.424Z,31.43
2018-04-24T03:13:06.885Z,31.77
2018-04-24T03:15:34.340Z,31.50
2018-04-24T03:18:01.821Z,31.97
2018-04-24T03:20:29.284Z,30.50
2018-04-24T03:22:56.760Z,33.67
2018-04-24T03:25:25.142Z,32.43
2018-04-24T03:27:56.306Z,32.20
2018-04-24T03:30:24.525Z,31.70
2018-04-24T03:32:56.096Z,32.83
2018-04-24T03:35:24.311Z,33.53
2018-04-24T03:37:51.771Z,32.97
2018-04-24T03:40:19.988Z,33.43
2018-04-24T03:42:47.457Z,34.73
2018-04-24T03:45:27.085Z,35.37
2018-04-24T03:47:54.558Z,35.33
2018-04-24T03:50:22.025Z,35.13
2018-04-24T03:52:49.483Z,34.47
2018-04-24T03:55:16.943Z,34.73
2018-04-24T03:57:44.391Z,37.37
2018-04-24T04:00:11.866Z,38.00
2018-04-24T04:02:39.329Z,37.00
2018-04-24T04:05:06.797Z,37.53
2018-04-24T04:07:34.298Z,36.80
2018-04-24T04:10:02.491Z,36.90
2018-04-24T04:12:29.943Z,38.07
2018-04-24T04:14:58.180Z,38.40
2018-04-24T04:17:39.412Z,38.50
2018-04-24T04:20:18.830Z,37.63
2018-04-24T04:22:58.857Z,39.83
2018-04-24T04:25:26.337Z,38.43
2018-04-24T04:27:53.796Z,38.40
2018-04-24T04:30:21.246Z,36.43
2018-04-24T04:32:49.525Z,37.77
2018-04-24T04:35:16.934Z,31.40
2018-04-24T04:37:44.397Z,31.77
2018-04-24T04:40:12.616Z,29.33
2018-04-24T04:42:40.072Z,30.90
2018-04-24T04:45:07.520Z,30.07
2018-04-24T04:47:46.394Z,28.27
2018-04-24T04:50:13.833Z,28.50
2018-04-24T04:52:43.160Z,30.10
2018-04-24T04:55:10.608Z,32.53
2018-04-24T04:57:38.082Z,32.83
2018-04-24T05:00:05.543Z,33.00
2018-04-24T05:02:33.013Z,33.97
2018-04-24T05:05:00.472Z,32.53
2018-04-24T05:07:28.700Z,32.87
2018-04-24T05:09:56.153Z,34.40
2018-04-24T05:12:24.387Z,33.37
2018-04-24T05:14:51.843Z,35.63
2018-04-24T05:17:19.305Z,32.93
2018-04-24T05:19:47.530Z,31.83
2018-04-24T05:22:14.997Z,32.23
2018-04-24T05:24:43.200Z,30.27
2018-04-24T05:27:10.659Z,29.50
2018-04-24T05:29:38.107Z,28.43
2018-04-24T05:32:05.609Z,28.27
2018-04-24T05:34:33.056Z,27.10
2018-04-24T05:37:00.522Z,28.13
2018-04-24T05:39:27.963Z,27.63
2018-04-24T05:41:56.860Z,29.40
2018-04-24T05:44:24.323Z,29.70
2018-04-24T05:46:51.781Z,27.63
2018-04-24T05:49:19.237Z,29.57
2018-04-24T05:51:47.451Z,29.73
2018-04-24T05:54:14.913Z,28.50
2018-04-24T05:56:42.372Z,27.03
2018-04-24T05:59:09.833Z,26.63
2018-04-24T06:01:38.188Z,27.60
2018-04-24T06:04:05.647Z,27.97
2018-04-24T06:06:35.037Z,26.13
2018-04-24T06:09:02.497Z,26.50
2018-04-24T06:11:29.955Z,25.40
2018-04-24T06:13:57.415Z,26.53
2018-04-24T06:16:25.586Z,27.57
2018-04-24T06:18:53.052Z,27.00
2018-04-24T06:21:20.509Z,24.50
2018-04-24T06:23:47.977Z,24.80
2018-04-24T06:26:15.431Z,22.93
2018-04-24T06:28:43.666Z,21.87
2018-04-24T06:31:11.124Z,24.33
2018-04-24T06:33:38.590Z,20.40
2018-04-24T06:36:06.825Z,19.87
2018-04-24T06:38:34.289Z,21.80
2018-04-24T06:41:01.732Z,19.57
2018-04-24T06:43:29.199Z,19.13
2018-04-24T06:45:56.649Z,20.60
2018-04-24T06:48:24.104Z,20.40
2018-04-24T06:50:51.556Z,18.23
2018-04-24T06:53:19.029Z,15.90
2018-04-24T06:55:47.191Z,18.03
2018-04-24T06:58:14.677Z,17.00
2018-04-24T07:00:42.168Z,17.80
2018-04-24T07:03:10.682Z,14.40
2018-04-24T07:05:38.137Z,14.67
2018-04-24T07:08:05.600Z,13.70
2018-04-24T07:10:33.816Z,13.27
2018-04-24T07:13:01.825Z,11.63
2018-04-24T07:15:29.313Z,13.37
2018-04-24T07:17:56.784Z,12.17
2018-04-24T07:20:24.244Z,12.63
2018-04-24T07:22:51.724Z,12.53
2018-04-24T07:25:19.940Z,11.80
2018-04-24T07:30:20.261Z,12.07
2018-04-24T07:32:47.731Z,11.90
2018-04-24T07:35:15.191Z,11.60
2018-04-24T07:37:42.654Z,11.03
2018-04-24T07:40:10.878Z,10.33
2018-04-24T07:42:38.443Z,10.37
2018-04-24T07:45:06.658Z,11.10
2018-04-24T07:47:34.125Z,11.40
2018-04-24T07:50:02.348Z,11.87
2018-04-24T07:52:29.800Z,9.60
2018-04-24T07:54:58.022Z,8.60
2018-04-24T07:57:25.475Z,8.87
2018-04-24T07:59:53.695Z,9.50
2018-04-24T08:02:21.153Z,9.97
2018-04-24T08:04:49.373Z,9.80
2018-04-24T08:07:16.853Z,9.57
2018-04-24T08:09:45.082Z,8.60
2018-04-24T08:12:12.609Z,9.77
2018-04-24T08:14:40.073Z,10.07
2018-04-24T08:17:07.526Z,9.20
2018-04-24T08:19:34.976Z,9.10
2018-04-24T08:22:03.198Z,8.63
2018-04-24T08:24:30.651Z,8.63
2018-04-24T08:26:58.869Z,8.03
2018-04-24T08:29:26.335Z,9.73
2018-04-24T08:31:54.548Z,8.73
2018-04-24T08:34:22.004Z,8.47
2018-04-24T08:36:50.224Z,8.00
2018-04-24T08:39:18.447Z,8.53
2018-04-24T08:41:45.905Z,8.10
2018-04-24T08:44:14.119Z,7.67
2018-04-24T08:46:41.568Z,8.33
2018-04-24T08:49:09.023Z,8.10
2018-04-24T08:51:36.472Z,8.13
2018-04-24T08:54:03.940Z,8.50
2018-04-24T08:56:31.385Z,9.50
2018-04-24T08:58:58.842Z,8.17
2018-04-24T09:01:26.289Z,8.23
2018-04-24T09:03:53.802Z,9.43
2018-04-24T09:06:21.248Z,9.07
2018-04-24T09:08:50.076Z,9.43
2018-04-24T09:11:17.524Z,8.60
2018-04-24T09:13:45.766Z,8.70
2018-04-24T09:16:13.226Z,8.53
2018-04-24T09:18:40.706Z,9.33
2018-04-24T09:21:08.157Z,8.83
2018-04-24T09:23:35.611Z,9.00
2018-04-24T09:26:03.055Z,10.10
2018-04-24T09:28:30.516Z,10.90
2018-04-24T09:30:58.736Z,10.40
2018-04-24T09:33:26.278Z,9.80
2018-04-24T09:35:54.408Z,10.77
2018-04-24T09:38:21.867Z,10.00
2018-04-24T09:40:49.317Z,10.43
2018-04-24T09:43:16.780Z,10.10
2018-04-24T09:45:44.232Z,10.90
2018-04-24T09:48:12.510Z,11.10
2018-04-24T09:50:39.971Z,10.23
2018-04-24T09:53:08.257Z,9.37
2018-04-24T09:55:35.718Z,9.30
2018-04-24T09:58:03.156Z,8.63
2018-04-24T10:00:36.535Z,9.63
2018-04-24T10:03:03.994Z,10.10
2018-04-24T10:05:31.457Z,9.63
2018-04-24T10:07:59.681Z,9.80
2018-04-24T10:10:27.144Z,10.20
2018-04-24T10:12:55.365Z,10.10
2018-04-24T10:15:22.834Z,9.40
2018-04-24T10:17:50.285Z,9.70
2018-04-24T10:20:17.745Z,10.13
2018-04-24T10:22:45.192Z,15.33
2018-04-24T10:25:12.689Z,10.97
2018-04-24T10:27:40.147Z,10.57
2018-04-24T10:30:07.622Z,12.00
2018-04-24T10:32:35.829Z,10.87
2018-04-24T10:35:03.299Z,12.03
2018-04-24T10:37:31.580Z,12.70
2018-04-24T10:39:58.981Z,11.73
2018-04-24T10:42:27.197Z,12.30
2018-04-24T10:44:54.661Z,10.97
2018-04-24T10:47:22.890Z,11.27
2018-04-24T10:49:50.359Z,11.27
2018-04-24T10:52:17.821Z,11.77
2018-04-24T10:54:46.039Z,11.90
2018-04-24T10:57:13.515Z,10.40
2018-04-24T10:59:40.982Z,10.23
2018-04-24T11:02:09.197Z,11.47
2018-04-24T11:04:37.425Z,9.30
2018-04-24T11:07:04.873Z,9.37
2018-04-24T11:09:33.100Z,8.50
2018-04-24T11:12:00.549Z,8.77
2018-04-24T11:14:28.781Z,7.30
2018-04-24T11:16:56.230Z,8.30
2018-04-24T11:19:24.465Z,8.87
2018-04-24T11:21:51.908Z,8.50
2018-04-24T11:24:20.125Z,9.37
2018-04-24T11:26:47.576Z,8.57
2018-04-24T11:29:15.025Z,10.43
2018-04-24T11:31:42.477Z,9.27
2018-04-24T11:34:10.015Z,11.30
2018-04-24T11:36:37.479Z,9.97
2018-04-24T11:39:06.378Z,10.17
2018-04-24T11:41:37.840Z,9.07
2018-04-24T11:44:05.330Z,9.30
2018-04-24T11:46:32.778Z,9.03
2018-04-24T11:49:01.003Z,9.50
2018-04-24T11:51:28.462Z,8.80
2018-04-24T11:53:56.688Z,9.23
2018-04-24T11:56:24.153Z,9.60
2018-04-24T11:58:51.601Z,9.13
2018-04-24T12:01:19.056Z,8.50
2018-04-24T12:03:46.505Z,8.60
2018-04-24T12:06:13.981Z,8.70
2018-04-24T12:08:42.199Z,7.70
2018-04-24T12:11:09.662Z,8.20
2018-04-24T12:13:37.108Z,7.97
2018-04-24T12:16:04.578Z,9.17
2018-04-24T12:18:32.037Z,8.23
2018-04-24T12:20:59.488Z,7.90
2018-04-24T12:23:26.962Z,8.30
2018-04-24T12:25:55.193Z,7.77
2018-04-24T12:28:22.633Z,7.50
2018-04-24T12:30:50.861Z,7.60
2018-04-24T12:33:18.313Z,7.87
2018-04-24T12:35:46.532Z,7.47
2018-04-24T12:38:13.981Z,6.33
2018-04-24T12:40:41.452Z,7.07
2018-04-24T12:43:08.893Z,6.70
2018-04-24T12:45:36.340Z,7.60
2018-04-24T12:48:04.556Z,7.33
2018-04-24T12:50:32.790Z,7.90
2018-04-24T12:53:00.232Z,5.83
2018-04-24T12:55:28.448Z,6.40
2018-04-24T12:57:55.894Z,7.10
2018-04-24T13:00:23.346Z,6.50
2018-04-24T13:02:50.793Z,7.00
2018-04-24T13:05:18.246Z,7.27
2018-04-24T13:07:46.458Z,6.33
2018-04-24T13:10:14.689Z,6.13
2018-04-24T13:12:42.132Z,6.23
2018-04-24T13:15:10.361Z,6.90
2018-04-24T13:17:37.808Z,5.80
2018-04-24T13:20:06.036Z,6.30
2018-04-24T13:22:33.490Z,5.73
2018-04-24T13:25:00.945Z,5.60
2018-04-24T13:27:28.394Z,5.87
2018-04-24T13:29:55.858Z,5.53
2018-04-24T13:32:23.313Z,5.77
2018-04-24T13:34:50.764Z,5.40
2018-04-24T13:37:18.273Z,6.10
2018-04-24T13:39:45.667Z,6.30
2018-04-24T13:42:13.964Z,5.93
2018-04-24T13:44:47.245Z,4.90
2018-04-24T13:47:14.701Z,5.80
2018-04-24T13:49:42.160Z,5.80
2018-04-24T13:52:10.387Z,5.37
2018-04-24T13:54:37.838Z,5.60
2018-04-24T13:57:06.073Z,6.07
2018-04-24T13:59:33.519Z,5.17
2018-04-24T14:02:01.755Z,5.30
2018-04-24T14:04:29.975Z,5.63
2018-04-24T14:06:57.441Z,5.40
2018-04-24T14:09:24.899Z,5.30
2018-04-24T14:11:52.353Z,5.30
2018-04-24T14:14:20.575Z,5.50
2018-04-24T14:16:50.948Z,5.20
2018-04-24T14:19:18.399Z,5.37
2018-04-24T14:21:45.923Z,5.50
2018-04-24T14:24:13.301Z,5.20
2018-04-24T14:26:40.757Z,5.30
2018-04-24T14:29:08.206Z,5.30
2018-04-24T14:31:36.514Z,4.90
2018-04-24T14:34:04.730Z,4.30
2018-04-24T14:36:32.960Z,5.03
2018-04-24T14:39:00.400Z,5.50
2018-04-24T14:41:28.633Z,4.40
2018-04-24T14:43:56.091Z,4.63
2018-04-24T14:46:24.317Z,6.13
2018-04-24T14:48:51.764Z,4.80
2018-04-24T14:51:19.983Z,4.47
2018-04-24T14:53:47.438Z,4.87
2018-04-24T14:56:14.883Z,4.93
2018-04-24T14:58:42.332Z,5.30
2018-04-24T15:01:09.785Z,4.83
2018-04-24T15:03:38.007Z,5.70
2018-04-24T15:06:05.456Z,5.87
2018-04-24T15:08:32.895Z,6.60
2018-04-24T15:11:00.351Z,7.30
2018-04-24T15:13:27.810Z,6.43
2018-04-24T15:15:55.260Z,6.93
2018-04-24T15:18:22.712Z,8.20
2018-04-24T15:20:50.169Z,8.40
2018-04-24T15:23:18.393Z,9.50
2018-04-24T15:25:46.618Z,9.87
2018-04-24T15:28:17.794Z,10.80
2018-04-24T15:30:45.444Z,11.10
2018-04-24T15:33:12.902Z,11.10
2018-04-24T15:35:40.371Z,11.17
2018-04-24T15:38:08.593Z,12.00
2018-04-24T15:40:36.061Z,11.57
2018-04-24T15:43:03.517Z,11.67
2018-04-24T15:45:30.986Z,12.10
2018-04-24T15:47:58.508Z,11.90
2018-04-24T15:50:25.908Z,13.03
2018-04-24T15:52:53.363Z,11.90
2018-04-24T15:55:20.816Z,11.83
2018-04-24T15:57:48.278Z,12.63
2018-04-24T16:00:15.732Z,13.17
2018-04-24T16:02:43.193Z,13.37
2018-04-24T16:05:10.640Z,12.00
2018-04-24T16:07:38.101Z,12.83
2018-04-24T16:10:06.445Z,14.07
2018-04-24T16:12:34.681Z,12.90
2018-04-24T16:15:02.144Z,14.67
2018-04-24T16:17:30.359Z,13.80
2018-04-24T16:19:57.804Z,12.73
2018-04-24T16:22:26.049Z,13.50
2018-04-24T16:24:54.276Z,14.87
2018-04-24T16:27:21.749Z,14.23
2018-04-24T16:29:49.291Z,14.53
2018-04-24T16:32:16.661Z,13.93
2018-04-24T16:34:44.888Z,13.80
2018-04-24T16:37:12.353Z,14.70
2018-04-24T16:39:39.808Z,14.60
2018-04-24T16:42:07.264Z,15.10
2018-04-24T16:44:34.715Z,15.00
2018-04-24T16:47:02.190Z,15.53
2018-04-24T16:49:29.650Z,15.50
2018-04-24T16:51:57.115Z,16.50
2018-04-24T16:54:24.668Z,17.07
2018-04-24T16:56:52.061Z,17.00
2018-04-24T16:59:19.516Z,16.93
2018-04-24T17:01:46.985Z,19.57
2018-04-24T17:04:14.430Z,16.80
2018-04-24T17:06:42.665Z,18.57
2018-04-24T17:09:10.145Z,18.60
2018-04-24T17:11:37.624Z,19.03
2018-04-24T17:14:05.076Z,20.00
2018-04-24T17:16:33.300Z,18.83
2018-04-24T17:19:00.757Z,21.00
2018-04-24T17:21:28.223Z,21.03
2018-04-24T17:23:55.671Z,21.47
2018-04-24T17:26:23.136Z,20.63
2018-04-24T17:28:50.601Z,21.47
2018-04-24T17:31:18.824Z,20.90
2018-04-24T17:33:46.285Z,19.90
2018-04-24T17:36:14.517Z,21.63
2018-04-24T17:38:41.964Z,22.70
2018-04-24T17:41:10.188Z,22.57
2018-04-24T17:43:37.642Z,23.53
2018-04-24T17:46:05.884Z,22.83
2018-04-24T17:48:33.351Z,23.20
2018-04-24T17:51:00.824Z,23.57
2018-04-24T17:53:31.583Z,24.60
2018-04-24T17:55:59.057Z,22.73
2018-04-24T17:58:27.278Z,24.83
2018-04-24T18:00:54.753Z,23.70
2018-04-24T18:03:22.217Z,24.77
2018-04-24T18:05:50.449Z,25.70
2018-04-24T18:08:17.908Z,24.90
2018-04-24T18:10:45.359Z,22.80
2018-04-24T18:13:12.830Z,25.27
2018-04-24T18:15:40.276Z,24.63
2018-04-24T18:18:07.746Z,23.37
2018-04-24T18:20:35.188Z,25.50
2018-04-24T18:23:02.647Z,25.77
2018-04-24T18:25:30.119Z,25.70
2018-04-24T18:27:58.353Z,27.30
2018-04-24T18:30:25.817Z,25.87
2018-04-24T18:32:53.271Z,25.73
2018-04-24T18:35:21.497Z,25.30
2018-04-24T18:37:48.951Z,23.97
2018-04-24T18:40:17.195Z,22.87
2018-04-24T18:42:44.640Z,23.07
2018-04-24T18:45:12.861Z,23.13
2018-04-24T18:47:40.327Z,24.63
2018-04-24T18:50:08.551Z,26.90
2018-04-24T18:52:36.004Z,26.00
2018-04-24T18:55:04.230Z,31.50
2018-04-24T18:57:31.709Z,20.43
2018-04-24T18:59:59.186Z,29.80
2018-04-24T19:02:26.673Z,23.27
2018-04-24T19:04:54.137Z,28.30
2018-04-24T19:07:22.785Z,25.70
2018-04-24T19:09:50.308Z,25.03
2018-04-24T19:12:17.775Z,23.23
2018-04-24T19:14:45.225Z,25.20
2018-04-24T19:17:12.713Z,26.60
2018-04-24T19:19:40.163Z,27.00
2018-04-24T19:22:08.394Z,29.17
2018-04-24T19:24:41.521Z,27.77
2018-04-24T19:27:08.989Z,27.33
2018-04-24T19:29:36.520Z,28.00
2018-04-24T19:32:09.654Z,29.10
2018-04-24T19:34:37.886Z,30.17
2018-04-24T19:37:05.351Z,24.03
2018-04-24T19:39:38.568Z,25.70
2018-04-24T19:42:06.044Z,22.97
2018-04-24T19:44:34.257Z,22.57
2018-04-24T19:47:01.728Z,24.73
2018-04-24T19:49:35.683Z,26.07
2018-04-24T19:52:03.150Z,27.20
2018-04-24T19:54:30.611Z,29.10
2018-04-24T19:56:58.845Z,27.60
2018-04-24T19:59:26.297Z,29.10
2018-04-24T20:01:54.537Z,27.97
2018-04-24T20:04:22.039Z,28.87
2018-04-24T20:06:50.227Z,28.83
2018-04-24T20:09:17.676Z,23.20
2018-04-24T20:11:45.144Z,24.13
2018-04-24T20:14:13.373Z,26.70
2018-04-24T20:16:40.823Z,26.03
2018-04-24T20:19:09.058Z,27.33
2018-04-24T20:21:36.503Z,24.90
2018-04-24T20:24:04.737Z,27.47
2018-04-24T20:26:32.183Z,23.13
2018-04-24T20:29:00.418Z,23.13
2018-04-24T20:31:27.881Z,24.23
2018-04-24T20:33:56.115Z,24.90
2018-04-24T20:36:23.577Z,26.40
2018-04-24T20:38:51.045Z,27.90
2018-04-24T20:41:18.513Z,29.63
2018-04-24T20:43:45.964Z,29.10
2018-04-24T20:46:13.420Z,29.90
2018-04-24T20:48:40.885Z,27.43
2018-04-24T20:51:08.341Z,28.60
2018-04-24T20:53:35.886Z,29.17
2018-04-24T20:56:03.263Z,28.73
2018-04-24T20:58:30.723Z,30.27
2018-04-24T21:00:58.192Z,30.23
2018-04-24T21:03:25.658Z,33.13
2018-04-24T21:05:53.885Z,29.53
2018-04-24T21:08:21.345Z,31.97
2018-04-24T21:10:49.573Z,33.03
2018-04-24T21:13:17.050Z,32.93
2018-04-24T21:15:44.484Z,32.70
2018-04-24T21:18:11.953Z,32.60
2018-04-24T21:20:39.400Z,31.90
2018-04-24T21:23:06.868Z,30.43
2018-04-24T21:25:34.321Z,33.07
2018-04-24T21:28:02.547Z,31.17
2018-04-24T21:30:29.995Z,32.17
2018-04-24T21:32:57.472Z,33.50
2018-04-24T21:35:24.946Z,37.97
2018-04-24T21:37:52.399Z,38.00
2018-04-24T21:40:19.847Z,37.83
2018-04-24T21:42:47.300Z,37.20
2018-04-24T21:45:14.753Z,40.03
2018-04-24T21:47:42.220Z,41.30
2018-04-24T21:50:09.664Z,40.90
2018-04-24T21:52:37.901Z,40.60
2018-04-24T21:55:06.113Z,41.87
2018-04-24T21:57:33.582Z,40.33
2018-04-24T22:00:01.040Z,39.17
2018-04-24T22:02:28.515Z,40.43
2018-04-24T22:04:56.737Z,39.77
2018-04-24T22:07:25.018Z,35.50
2018-04-24T22:09:52.476Z,38.17
2018-04-24T22:12:19.965Z,38.30
2018-04-24T22:14:47.421Z,38.07
2018-04-24T22:17:14.876Z,35.50
2018-04-24T22:19:42.348Z,38.67
2018-04-24T22:22:09.801Z,37.13
2018-04-24T22:24:38.028Z,36.80
2018-04-24T22:27:05.494Z,36.43
2018-04-24T22:29:33.717Z,34.40
2018-04-24T22:32:01.165Z,33.63
2018-04-24T22:34:29.397Z,35.63
2018-04-24T22:36:56.857Z,32.97
2018-04-24T22:39:25.098Z,29.77
2018-04-24T22:41:52.548Z,30.07
2018-04-24T22:44:20.021Z,29.13
2018-04-24T22:46:48.240Z,29.57
2018-04-24T22:49:15.704Z,29.07
2018-04-24T22:51:43.924Z,28.80
2018-04-24T22:54:11.392Z,27.30
2018-04-24T22:56:38.849Z,27.67
2018-04-24T22:59:06.308Z,28.37
2018-04-24T23:01:33.777Z,28.10
2018-04-24T23:04:01.246Z,26.63
2018-04-24T23:06:28.701Z,25.97
2018-04-24T23:08:56.174Z,26.60
2018-04-24T23:11:36.420Z,27.07
2018-04-24T23:14:15.881Z,25.63
2018-04-24T23:16:55.057Z,25.77
2018-04-24T23:19:34.357Z,25.77
2018-04-24T23:22:01.327Z,26.47
2018-04-24T23:24:28.784Z,26.50
2018-04-24T23:26:56.241Z,26.50
2018-04-24T23:29:23.711Z,26.17
2018-04-24T23:31:51.171Z,26.73
2018-04-24T23:34:18.642Z,27.80
2018-04-24T23:36:46.099Z,25.30
2018-04-24T23:39:14.334Z,26.57
2018-04-24T23:41:41.785Z,28.07
2018-04-24T23:44:10.022Z,24.70
2018-04-24T23:46:37.476Z,25.57
2018-04-24T23:49:04.940Z,25.40
2018-04-24T23:51:33.168Z,24.30
2018-04-24T23:54:00.633Z,24.27
2018-04-24T23:56:39.444Z,24.43
2018-04-24T23:59:06.908Z,23.40
